Time;durP1;ratioP1;P1;durP2;ratioP2;P2;SDS_P1;SDS_P2;PMS_P1;PMS_P2;Temp;Humidity;BMP_temperature;BMP_pressure;BME280_temperature;BME280_humidity;BME280_pressure;Samples;Min_cycle;Max_cycle;Signal;HPM_P1;HPM_P2
2022/06/04 00:00:47;;;;;;;;;;;17.60;99.90;;;;;;5094071;28;19924;-80
2022/06/04 00:03:14;;;;;;;;;;;17.60;99.90;;;;;;5079802;28;19928;-80
2022/06/04 00:05:45;;;;;;;;;;;17.50;99.90;;;;;;5075753;28;19931;-80
2022/06/04 00:08:12;;;;;;;;;;;17.40;99.90;;;;;;5094869;28;20422;-80
2022/06/04 00:16:14;;;;;;;;;;;17.10;99.90;;;;;;5088139;28;19924;-80
2022/06/04 00:18:41;;;;;;;;;;;16.90;99.90;;;;;;5080635;28;19966;-79
2022/06/04 00:21:08;;;;;;;;;;;16.70;99.90;;;;;;5081987;28;19923;-80
2022/06/04 00:23:35;;;;;;;;;;;16.50;99.90;;;;;;5097318;28;19935;-79
2022/06/04 00:26:03;;;;;;;;;;;16.40;99.90;;;;;;5093258;28;19924;-79
2022/06/04 00:28:30;;;;;;;;;;;16.20;99.90;;;;;;5093658;28;19924;-79
2022/06/04 00:31:00;;;;;;;;;;;16.10;99.90;;;;;;5091940;28;19924;-79
2022/06/04 00:33:27;;;;;;;;;;;16.10;99.90;;;;;;5091608;28;19924;-80
2022/06/04 00:35:54;;;;;;;;;;;15.90;99.90;;;;;;5093404;28;20027;-79
2022/06/04 00:38:23;;;;;;;;;;;15.80;99.90;;;;;;5093646;28;19947;-80
2022/06/04 00:40:58;;;;;;;;;;;15.70;99.90;;;;;;5090271;28;20022;-80
2022/06/04 00:43:25;;;;;;;;;;;15.70;99.90;;;;;;5093333;28;19924;-79
2022/06/04 00:46:10;;;;;;;;;;;15.60;99.90;;;;;;5087373;28;19977;-79
2022/06/04 00:48:37;;;;;;;;;;;15.60;99.90;;;;;;5083373;28;20290;-79
2022/06/04 00:51:06;;;;;;;;;;;15.50;99.90;;;;;;5078872;28;20393;-79
2022/06/04 00:53:34;;;;;;;;;;;15.50;99.90;;;;;;5091324;28;19924;-79
2022/06/04 00:56:13;;;;;;;;;;;15.40;99.90;;;;;;5091864;28;19930;-79
2022/06/04 00:58:39;;;;;;;;;;;15.40;99.90;;;;;;5093829;28;19925;-79
2022/06/04 01:01:17;;;;;;;;;;;15.30;99.90;;;;;;5093504;28;19928;-79
2022/06/04 01:04:08;;;;;;;;;;;15.20;99.90;;;;;;5091255;28;20027;-79
2022/06/04 01:06:50;;;;;;;;;;;15.20;99.90;;;;;;5092458;28;20012;-79
2022/06/04 01:09:18;;;;;;;;;;;15.10;99.90;;;;;;5082252;28;19928;-79
2022/06/04 01:12:09;;;;;;;;;;;15.00;99.90;;;;;;5092503;28;19924;-80
2022/06/04 01:14:54;;;;;;;;;;;15.00;99.90;;;;;;5091315;28;20290;-79
2022/06/04 01:17:39;;;;;;;;;;;15.00;99.90;;;;;;5092715;28;20343;-78
2022/06/04 01:20:32;;;;;;;;;;;15.00;99.90;;;;;;5094217;28;19934;-79
2022/06/04 01:23:05;;;;;;;;;;;15.00;99.90;;;;;;5076139;28;20042;-80
2022/06/04 01:25:36;;;;;;;;;;;15.00;99.90;;;;;;5084785;28;19931;-80
2022/06/04 01:28:07;;;;;;;;;;;14.90;99.90;;;;;;5092765;28;20014;-80
2022/06/04 01:30:39;;;;;;;;;;;14.90;99.90;;;;;;5091917;28;20018;-80
2022/06/04 01:33:18;;;;;;;;;;;14.90;99.90;;;;;;5092993;28;19934;-80
2022/06/04 01:35:48;;;;;;;;;;;14.90;99.90;;;;;;5092470;28;19935;-79
2022/06/04 01:38:24;;;;;;;;;;;14.90;99.90;;;;;;5097422;28;20011;-80
2022/06/04 01:41:06;;;;;;;;;;;14.90;99.90;;;;;;5098794;28;20022;-80
2022/06/04 01:43:43;;;;;;;;;;;14.80;99.90;;;;;;5090514;28;19924;-79
2022/06/04 01:46:16;;;;;;;;;;;14.80;99.90;;;;;;5072257;28;20015;-79
2022/06/04 01:48:45;;;;;;;;;;;14.80;99.90;;;;;;5089174;28;19970;-79
2022/06/04 01:51:15;;;;;;;;;;;14.70;99.90;;;;;;5095185;28;19924;-78
2022/06/04 01:53:43;;;;;;;;;;;14.70;99.90;;;;;;5092627;28;19928;-79
2022/06/04 01:56:15;;;;;;;;;;;14.70;99.90;;;;;;5092848;28;19924;-79
2022/06/04 01:58:45;;;;;;;;;;;14.60;99.90;;;;;;5092874;28;19930;-79
2022/06/04 02:01:15;;;;;;;;;;;14.50;99.90;;;;;;5085623;28;20015;-79
2022/06/04 02:03:44;;;;;;;;;;;14.40;99.90;;;;;;5090798;28;19924;-79
2022/06/04 02:06:14;;;;;;;;;;;14.40;99.90;;;;;;5093274;28;19924;-79
2022/06/04 02:09:01;;;;;;;;;;;14.30;99.90;;;;;;5086955;28;19932;-79
2022/06/04 02:11:29;;;;;;;;;;;14.20;99.90;;;;;;5085859;28;19928;-79
2022/06/04 02:13:58;;;;;;;;;;;14.30;99.90;;;;;;5082031;28;20019;-79
2022/06/04 02:16:30;;;;;;;;;;;14.40;99.90;;;;;;5092009;28;20335;-79
2022/06/04 02:18:58;;;;;;;;;;;14.60;99.90;;;;;;5089802;28;19928;-79
2022/06/04 02:21:27;;;;;;;;;;;14.70;99.90;;;;;;5090767;28;20032;-79
2022/06/04 02:23:55;;;;;;;;;;;14.70;99.90;;;;;;5083174;28;19934;-79
2022/06/04 02:26:23;;;;;;;;;;;14.70;99.90;;;;;;5080379;28;19928;-79
2022/06/04 02:28:50;;;;;;;;;;;14.70;99.90;;;;;;5085909;28;19931;-79
2022/06/04 02:31:25;;;;;;;;;;;14.70;99.90;;;;;;5086024;28;19928;-80
2022/06/04 02:34:11;;;;;;;;;;;14.70;99.90;;;;;;5086020;28;19923;-79
2022/06/04 02:36:43;;;;;;;;;;;14.90;99.90;;;;;;5087068;28;20529;-79
2022/06/04 02:39:24;;;;;;;;;;;14.90;99.90;;;;;;5090875;28;19924;-79
2022/06/04 02:42:00;;;;;;;;;;;14.90;99.90;;;;;;5091944;28;19924;-79
2022/06/04 02:44:28;;;;;;;;;;;14.80;99.90;;;;;;5090178;28;19928;-78
2022/06/04 02:47:10;;;;;;;;;;;14.80;99.90;;;;;;5092049;28;19930;-78
2022/06/04 02:49:40;;;;;;;;;;;15.00;99.90;;;;;;5103979;28;19928;-79
2022/06/04 02:52:11;;;;;;;;;;;15.00;99.90;;;;;;5090364;28;19932;-79
2022/06/04 02:54:54;;;;;;;;;;;15.00;99.90;;;;;;5090699;28;19963;-79
2022/06/04 02:57:22;;;;;;;;;;;15.00;99.90;;;;;;5072952;28;19931;-78
2022/06/04 02:59:49;;;;;;;;;;;15.00;99.90;;;;;;5085091;28;19924;-78
2022/06/04 03:02:17;;;;;;;;;;;15.00;99.90;;;;;;5095145;28;19931;-78
2022/06/04 03:04:47;;;;;;;;;;;15.00;99.90;;;;;;5095595;28;20371;-79
2022/06/04 03:07:14;;;;;;;;;;;15.00;99.90;;;;;;5095698;28;19964;-79
2022/06/04 03:09:41;;;;;;;;;;;15.00;99.90;;;;;;5094125;28;20418;-76
2022/06/04 03:12:09;;;;;;;;;;;15.00;99.90;;;;;;5094457;28;20007;-80
2022/06/04 03:14:36;;;;;;;;;;;15.00;99.90;;;;;;5094060;28;20018;-79
2022/06/04 03:17:31;;;;;;;;;;;14.90;99.90;;;;;;5094618;28;20030;-79
2022/06/04 03:19:58;;;;;;;;;;;14.80;99.90;;;;;;5099750;28;20294;-79
2022/06/04 03:22:24;;;;;;;;;;;14.80;99.90;;;;;;5095458;28;20011;-79
2022/06/04 03:24:51;;;;;;;;;;;14.70;99.90;;;;;;5094976;28;19923;-78
2022/06/04 03:27:18;;;;;;;;;;;14.70;99.90;;;;;;5084964;28;19931;-79
2022/06/04 03:29:46;;;;;;;;;;;14.60;99.90;;;;;;5093927;28;20006;-79
2022/06/04 03:32:12;;;;;;;;;;;14.60;99.90;;;;;;5093817;28;20015;-79
2022/06/04 03:34:39;;;;;;;;;;;14.60;99.90;;;;;;5093644;28;19964;-79
2022/06/04 03:37:06;;;;;;;;;;;14.60;99.90;;;;;;5094572;28;19930;-79
2022/06/04 03:39:32;;;;;;;;;;;14.60;99.90;;;;;;5095779;28;19924;-79
2022/06/04 03:42:01;;;;;;;;;;;14.70;99.90;;;;;;5095542;28;20014;-79
2022/06/04 03:44:27;;;;;;;;;;;14.70;99.90;;;;;;5084469;28;20404;-78
2022/06/04 03:46:54;;;;;;;;;;;14.70;99.90;;;;;;5087728;28;20023;-79
2022/06/04 03:49:21;;;;;;;;;;;14.70;99.90;;;;;;5088260;28;20095;-79
2022/06/04 03:51:51;;;;;;;;;;;14.70;99.90;;;;;;5088854;28;19928;-79
2022/06/04 03:54:52;;;;;;;;;;;14.80;99.90;;;;;;5094576;28;19928;-78
2022/06/04 03:59:51;;;;;;;;;;;15.00;99.90;;;;;;5091793;28;19930;-79
2022/06/04 04:02:20;;;;;;;;;;;15.00;99.90;;;;;;5092788;28;19923;-80
2022/06/04 04:04:47;;;;;;;;;;;15.10;99.90;;;;;;5087957;28;19924;-79
2022/06/04 04:07:14;;;;;;;;;;;15.20;99.90;;;;;;5094646;28;19925;-79
2022/06/04 04:09:41;;;;;;;;;;;15.20;99.90;;;;;;5093715;28;20378;-79
2022/06/04 04:12:07;;;;;;;;;;;15.30;99.90;;;;;;5082211;28;19928;-79
2022/06/04 04:14:41;;;;;;;;;;;15.40;99.90;;;;;;5091995;28;19931;-79
2022/06/04 04:17:09;;;;;;;;;;;15.40;99.90;;;;;;5094104;28;20382;-79
2022/06/04 04:19:35;;;;;;;;;;;15.50;99.90;;;;;;5094573;28;19980;-78
2022/06/04 04:22:02;;;;;;;;;;;15.50;99.90;;;;;;5091846;28;19982;-79
2022/06/04 04:24:29;;;;;;;;;;;15.50;99.90;;;;;;5093368;28;19955;-79
2022/06/04 04:26:55;;;;;;;;;;;15.60;99.90;;;;;;5094011;28;19931;-78
2022/06/04 04:29:22;;;;;;;;;;;15.70;99.90;;;;;;5094354;28;20014;-79
2022/06/04 04:31:49;;;;;;;;;;;15.80;99.90;;;;;;5092635;28;20370;-79
2022/06/04 04:34:16;;;;;;;;;;;16.00;99.90;;;;;;5093166;28;19924;-79
2022/06/04 04:36:45;;;;;;;;;;;16.10;99.90;;;;;;5095844;28;20015;-79
2022/06/04 04:39:13;;;;;;;;;;;16.40;99.90;;;;;;5089584;28;19927;-79
2022/06/04 04:41:40;;;;;;;;;;;17.10;99.90;;;;;;5090504;28;19938;-80
2022/06/04 04:44:07;;;;;;;;;;;17.90;99.90;;;;;;5092898;28;19924;-79
2022/06/04 04:46:34;;;;;;;;;;;18.90;99.90;;;;;;5092672;28;19924;-74
2022/06/04 04:49:00;;;;;;;;;;;20.00;99.90;;;;;;5092917;28;20446;-80
2022/06/04 04:51:30;;;;;;;;;;;20.80;99.90;;;;;;5092655;28;20015;-80
2022/06/04 04:53:57;;;;;;;;;;;22.20;99.90;;;;;;5090948;28;20417;-77
2022/06/04 04:56:24;;;;;;;;;;;23.30;99.90;;;;;;5091624;28;20430;-79
2022/06/04 04:58:51;;;;;;;;;;;23.40;99.90;;;;;;5092965;28;19942;-80
2022/06/04 05:01:22;;;;;;;;;;;23.10;99.90;;;;;;5093490;28;19950;-80
2022/06/04 05:03:49;;;;;;;;;;;22.80;99.90;;;;;;5073869;28;19925;-80
2022/06/04 05:06:17;;;;;;;;;;;22.40;99.90;;;;;;5091569;28;20042;-80
2022/06/04 05:08:44;;;;;;;;;;;22.00;99.90;;;;;;5092643;28;20361;-79
2022/06/04 05:11:14;;;;;;;;;;;21.50;99.90;;;;;;5094920;28;19971;-80
2022/06/04 05:13:41;;;;;;;;;;;21.20;99.90;;;;;;5101838;28;19930;-79
2022/06/04 05:16:08;;;;;;;;;;;21.10;99.90;;;;;;5091452;28;19974;-81
2022/06/04 05:19:01;;;;;;;;;;;21.00;99.90;;;;;;5090384;28;19924;-81
2022/06/04 05:21:34;;;;;;;;;;;20.80;99.90;;;;;;5088907;28;19924;-79
2022/06/04 05:24:01;;;;;;;;;;;20.70;99.90;;;;;;5093169;28;19930;-78
2022/06/04 05:26:27;;;;;;;;;;;20.70;99.90;;;;;;5093753;28;20034;-80
2022/06/04 05:28:54;;;;;;;;;;;20.90;99.90;;;;;;5092816;28;20011;-78
2022/06/04 05:31:21;;;;;;;;;;;21.50;99.90;;;;;;5093387;28;20019;-80
2022/06/04 05:33:50;;;;;;;;;;;22.00;99.90;;;;;;5090781;28;19974;-77
2022/06/04 05:36:16;;;;;;;;;;;22.40;99.90;;;;;;5098205;28;19934;-80
2022/06/04 05:38:43;;;;;;;;;;;22.10;99.90;;;;;;5104260;28;19931;-77
2022/06/04 05:41:13;;;;;;;;;;;21.90;99.90;;;;;;5103756;28;20032;-78
2022/06/04 05:43:42;;;;;;;;;;;22.60;99.90;;;;;;5091607;28;19954;-79
2022/06/04 05:46:10;;;;;;;;;;;23.60;99.90;;;;;;5084186;28;19930;-77
2022/06/04 05:48:38;;;;;;;;;;;24.10;99.90;;;;;;5092664;28;19924;-78
2022/06/04 05:51:06;;;;;;;;;;;24.50;99.90;;;;;;5100103;28;20011;-77
2022/06/04 05:53:34;;;;;;;;;;;24.40;99.90;;;;;;5095909;28;19924;-77
2022/06/04 05:56:01;;;;;;;;;;;24.30;99.90;;;;;;5090920;28;19924;-76
2022/06/04 05:58:28;;;;;;;;;;;24.20;99.90;;;;;;5076922;28;19968;-76
2022/06/04 06:00:59;;;;;;;;;;;24.30;99.90;;;;;;5089381;28;19924;-73
2022/06/04 06:03:26;;;;;;;;;;;24.10;99.90;;;;;;5091040;28;19977;-78
2022/06/04 06:05:53;;;;;;;;;;;24.10;99.90;;;;;;5098101;28;20011;-76
2022/06/04 06:08:19;;;;;;;;;;;24.50;99.90;;;;;;5091450;28;19924;-77
2022/06/04 06:10:46;;;;;;;;;;;24.90;99.90;;;;;;5089181;28;19925;-78
2022/06/04 06:13:14;;;;;;;;;;;25.20;99.90;;;;;;5090467;28;20011;-75
2022/06/04 06:15:41;;;;;;;;;;;25.30;99.90;;;;;;5088703;28;20518;-74
2022/06/04 06:18:08;;;;;;;;;;;25.10;99.90;;;;;;5093828;28;19973;-73
2022/06/04 06:20:35;;;;;;;;;;;24.90;99.90;;;;;;5090834;28;20044;-77
2022/06/04 06:23:02;;;;;;;;;;;24.80;99.90;;;;;;5090049;28;20016;-76
2022/06/04 06:25:30;;;;;;;;;;;24.70;99.90;;;;;;5089931;28;19985;-78
2022/06/04 06:27:57;;;;;;;;;;;24.60;99.90;;;;;;5092631;28;20355;-75
2022/06/04 06:30:24;;;;;;;;;;;24.30;99.90;;;;;;5089590;28;19924;-76
2022/06/04 06:32:50;;;;;;;;;;;24.40;99.90;;;;;;5092608;28;20374;-77
2022/06/04 06:35:17;;;;;;;;;;;24.60;99.90;;;;;;5091391;28;19924;-77
2022/06/04 06:37:44;;;;;;;;;;;24.50;99.90;;;;;;5095069;28;19932;-79
2022/06/04 06:40:13;;;;;;;;;;;24.30;99.90;;;;;;5094705;28;20565;-74
2022/06/04 06:42:40;;;;;;;;;;;24.00;99.90;;;;;;5093659;28;19924;-77
2022/06/04 06:45:07;;;;;;;;;;;24.10;99.90;;;;;;5089950;28;19926;-71
2022/06/04 06:47:34;;;;;;;;;;;24.10;99.90;;;;;;5090372;28;20379;-77
2022/06/04 06:50:00;;;;;;;;;;;23.90;99.90;;;;;;5092000;28;19954;-74
2022/06/04 06:52:27;;;;;;;;;;;23.70;99.90;;;;;;5084072;28;19924;-77
2022/06/04 06:54:54;;;;;;;;;;;23.70;99.90;;;;;;5099007;28;19931;-76
2022/06/04 06:57:20;;;;;;;;;;;23.70;99.90;;;;;;5093003;28;20019;-73
2022/06/04 06:59:48;;;;;;;;;;;23.70;99.90;;;;;;5093456;28;20566;-76
2022/06/04 07:02:15;;;;;;;;;;;23.70;99.90;;;;;;5089867;28;20035;-78
2022/06/04 07:04:42;;;;;;;;;;;23.60;99.90;;;;;;5093066;28;19924;-76
2022/06/04 07:07:09;;;;;;;;;;;23.60;99.90;;;;;;5084690;28;19931;-75
2022/06/04 07:09:37;;;;;;;;;;;23.60;99.90;;;;;;5093039;28;20010;-74
2022/06/04 07:12:05;;;;;;;;;;;23.60;99.90;;;;;;5087428;28;19924;-76
2022/06/04 07:14:31;;;;;;;;;;;23.50;99.90;;;;;;5089877;28;20725;-75
2022/06/04 07:16:59;;;;;;;;;;;23.50;99.90;;;;;;5091599;28;19928;-74
2022/06/04 07:19:26;;;;;;;;;;;23.60;99.90;;;;;;5094083;28;19924;-77
2022/06/04 07:21:54;;;;;;;;;;;23.60;99.90;;;;;;5089718;28;19924;-75
2022/06/04 07:24:20;;;;;;;;;;;23.70;99.90;;;;;;5094104;28;19967;-79
2022/06/04 07:26:47;;;;;;;;;;;23.80;99.90;;;;;;5094595;28;20006;-77
2022/06/04 07:29:18;;;;;;;;;;;23.70;99.90;;;;;;5089146;28;20442;-77
2022/06/04 07:31:45;;;;;;;;;;;23.70;99.90;;;;;;5093268;28;19931;-73
2022/06/04 07:34:12;;;;;;;;;;;23.60;99.90;;;;;;5098462;28;19925;-75
2022/06/04 07:36:41;;;;;;;;;;;23.70;99.90;;;;;;5084266;28;20375;-78
2022/06/04 07:39:09;;;;;;;;;;;23.80;99.90;;;;;;5085720;28;19928;-78
2022/06/04 07:41:40;;;;;;;;;;;23.80;99.90;;;;;;5092403;28;20313;-77
2022/06/04 07:44:07;;;;;;;;;;;23.80;99.90;;;;;;5086868;28;19934;-78
2022/06/04 07:46:34;;;;;;;;;;;23.90;99.90;;;;;;5093950;28;19924;-72
2022/06/04 07:49:03;;;;;;;;;;;24.10;99.90;;;;;;5095450;28;19924;-75
2022/06/04 07:51:31;;;;;;;;;;;24.30;99.90;;;;;;5094412;28;20321;-76
2022/06/04 07:54:00;;;;;;;;;;;24.50;99.90;;;;;;5090275;28;19928;-76
2022/06/04 07:56:27;;;;;;;;;;;24.80;99.90;;;;;;5090311;28;19928;-80
2022/06/04 07:58:56;;;;;;;;;;;25.10;99.90;;;;;;5093464;28;19924;-75
2022/06/04 08:01:23;;;;;;;;;;;25.20;99.90;;;;;;5092910;28;19930;-75
2022/06/04 08:03:53;;;;;;;;;;;25.50;99.90;;;;;;5091869;28;19924;-75
2022/06/04 08:06:21;;;;;;;;;;;25.80;99.90;;;;;;5089979;28;19931;-78
2022/06/04 08:08:54;;;;;;;;;;;26.00;99.90;;;;;;5097065;28;20445;-78
2022/06/04 08:11:34;;;;;;;;;;;26.20;99.90;;;;;;5093299;28;19924;-77
2022/06/04 08:14:09;;;;;;;;;;;26.90;99.90;;;;;;5089920;28;19928;-74
2022/06/04 08:16:37;;;;;;;;;;;28.00;99.90;;;;;;5104327;28;19982;-76
2022/06/04 08:19:05;;;;;;;;;;;28.90;99.90;;;;;;5092485;28;19924;-76
2022/06/04 08:21:32;;;;;;;;;;;29.30;99.90;;;;;;5092362;28;19938;-76
2022/06/04 08:23:59;;;;;;;;;;;29.20;99.90;;;;;;5093965;28;19924;-79
2022/06/04 08:26:26;;;;;;;;;;;29.20;99.90;;;;;;5090220;28;20422;-76
2022/06/04 08:28:53;;;;;;;;;;;28.80;99.90;;;;;;5091302;28;19924;-77
2022/06/04 08:31:20;;;;;;;;;;;28.50;99.90;;;;;;5090888;28;20015;-74
2022/06/04 08:33:49;;;;;;;;;;;28.20;99.90;;;;;;5097318;28;19930;-76
2022/06/04 08:36:16;;;;;;;;;;;27.80;99.90;;;;;;5092415;28;19928;-74
2022/06/04 08:38:43;;;;;;;;;;;27.50;99.90;;;;;;5086785;28;19924;-73
2022/06/04 08:41:22;;;;;;;;;;;28.00;99.90;;;;;;5086940;28;20385;-78
2022/06/04 08:43:55;;;;;;;;;;;28.90;99.90;;;;;;5091267;28;20291;-74
2022/06/04 08:46:28;;;;;;;;;;;29.50;99.90;;;;;;5089381;28;19924;-72
2022/06/04 08:48:55;;;;;;;;;;;29.90;99.90;;;;;;5088156;28;19931;-74
2022/06/04 08:51:24;;;;;;;;;;;30.00;99.90;;;;;;5090839;28;19924;-76
2022/06/04 08:53:53;;;;;;;;;;;29.90;99.90;;;;;;5088502;28;19931;-78
2022/06/04 08:59:18;;;;;;;;;;;29.90;99.90;;;;;;5091118;28;19928;-77
2022/06/04 09:02:14;;;;;;;;;;;31.00;99.90;;;;;;5090611;28;20011;-76
2022/06/04 09:04:56;;;;;;;;;;;31.50;99.90;;;;;;5082964;28;19925;-73
2022/06/04 09:07:35;;;;;;;;;;;31.00;99.90;;;;;;5085479;28;20593;-73
2022/06/04 09:10:22;;;;;;;;;;;30.50;99.90;;;;;;5091718;28;20031;-73
2022/06/04 09:12:51;;;;;;;;;;;30.00;99.90;;;;;;5091118;28;19930;-76
2022/06/04 09:15:31;;;;;;;;;;;29.80;99.90;;;;;;5096814;28;19938;-75
2022/06/04 09:17:59;;;;;;;;;;;30.70;99.90;;;;;;5088940;28;19928;-76
2022/06/04 09:20:45;;;;;;;;;;;31.60;99.90;;;;;;5091369;28;19924;-74
2022/06/04 09:23:22;;;;;;;;;;;31.60;99.90;;;;;;5086382;28;20019;-75
2022/06/04 09:25:51;;;;;;;;;;;31.30;99.90;;;;;;5091529;28;19936;-77
2022/06/04 09:28:18;;;;;;;;;;;31.70;99.90;;;;;;5089782;28;19946;-73
2022/06/04 09:31:05;;;;;;;;;;;32.80;99.90;;;;;;5090462;28;19994;-76
2022/06/04 09:33:42;;;;;;;;;;;33.80;99.90;;;;;;5058209;28;20578;-75
2022/06/04 09:36:14;;;;;;;;;;;34.90;99.90;;;;;;5081454;28;19927;-73
2022/06/04 09:38:56;;;;;;;;;;;34.50;99.90;;;;;;5082520;28;19931;-66
2022/06/04 09:41:24;;;;;;;;;;;34.10;99.90;;;;;;5080766;28;19924;-67
2022/06/04 09:44:00;;;;;;;;;;;33.10;99.90;;;;;;5088154;28;19932;-66
2022/06/04 09:46:27;;;;;;;;;;;32.20;99.90;;;;;;5088808;28;19924;-66
2022/06/04 09:48:57;;;;;;;;;;;30.80;99.90;;;;;;5087171;28;20007;-70
2022/06/04 09:51:27;;;;;;;;;;;30.50;99.90;;;;;;5086542;28;19924;-72
2022/06/04 09:54:04;;;;;;;;;;;31.20;99.90;;;;;;5086540;28;19979;-69
2022/06/04 09:56:30;;;;;;;;;;;31.60;99.90;;;;;;5085332;28;19928;-69
2022/06/04 09:59:06;;;;;;;;;;;31.60;99.90;;;;;;5085712;28;19928;-71
2022/06/04 10:01:33;;;;;;;;;;;31.60;99.90;;;;;;5085473;28;19930;-69
2022/06/04 10:04:04;;;;;;;;;;;32.20;99.90;;;;;;5078930;28;19924;-71
2022/06/04 10:06:36;;;;;;;;;;;33.30;99.90;;;;;;5089697;28;20332;-67
2022/06/04 10:11:57;;;;;;;;;;;34.40;99.90;;;;;;5085132;28;19978;-71
2022/06/04 10:14:31;;;;;;;;;;;33.50;99.90;;;;;;5088567;28;19931;-67
2022/06/04 10:16:59;;;;;;;;;;;32.80;99.90;;;;;;5089394;28;19936;-71
2022/06/04 10:19:26;;;;;;;;;;;32.10;99.90;;;;;;5086475;28;19935;-71
2022/06/04 10:22:22;;;;;;;;;;;31.60;99.90;;;;;;5089581;28;20015;-71
2022/06/04 10:24:48;;;;;;;;;;;31.80;99.90;;;;;;5045662;28;19939;-71
2022/06/04 10:27:22;;;;;;;;;;;31.40;99.90;;;;;;5069575;28;19931;-70
2022/06/04 10:29:55;;;;;;;;;;;31.70;99.90;;;;;;5047579;28;19936;-68
2022/06/04 10:32:33;;;;;;;;;;;32.10;99.90;;;;;;5045593;28;19929;-67
2022/06/04 10:35:26;;;;;;;;;;;32.30;99.90;;;;;;5049160;28;19924;-68
2022/06/04 10:37:59;;;;;;;;;;;31.80;99.90;;;;;;5053630;28;19924;-71
2022/06/04 10:40:41;;;;;;;;;;;31.50;99.90;;;;;;5047110;28;19925;-64
2022/06/04 10:43:40;;;;;;;;;;;31.00;99.90;;;;;;5043549;28;19931;-69
2022/06/04 10:46:26;;;;;;;;;;;31.00;99.90;;;;;;5038084;28;19972;-69
2022/06/04 10:49:08;;;;;;;;;;;30.50;99.90;;;;;;5047578;28;19924;-71
2022/06/04 10:51:35;;;;;;;;;;;30.60;99.90;;;;;;5034458;28;20036;-69
2022/06/04 10:54:04;;;;;;;;;;;30.50;99.90;;;;;;5051438;28;19964;-69
2022/06/04 10:56:34;;;;;;;;;;;30.50;99.90;;;;;;5046382;28;20067;-70
2022/06/04 10:59:08;;;;;;;;;;;30.90;99.90;;;;;;5047036;28;19939;-69
2022/06/04 11:01:46;;;;;;;;;;;31.10;99.90;;;;;;5068528;28;19963;-71
2022/06/04 11:04:22;;;;;;;;;;;31.10;99.90;;;;;;5085550;28;19967;-69
2022/06/04 11:07:15;;;;;;;;;;;30.70;99.90;;;;;;5087639;28;20019;-71
2022/06/04 11:09:42;;;;;;;;;;;30.30;99.90;;;;;;5086833;28;19934;-68
2022/06/04 11:12:26;;;;;;;;;;;30.10;99.90;;;;;;5087918;28;19932;-71
2022/06/04 11:14:55;;;;;;;;;;;30.10;99.90;;;;;;5089498;28;19942;-69
2022/06/04 11:17:32;;;;;;;;;;;30.10;99.90;;;;;;5089119;28;19970;-70
2022/06/04 11:20:09;;;;;;;;;;;30.60;99.90;;;;;;5089470;28;19928;-71
2022/06/04 11:22:38;;;;;;;;;;;30.70;99.90;;;;;;5093652;28;20359;-70
2022/06/04 11:25:14;;;;;;;;;;;31.30;99.90;;;;;;5089723;28;19932;-69
2022/06/04 11:27:45;;;;;;;;;;;31.70;99.90;;;;;;5089498;28;19928;-71
2022/06/04 11:30:15;;;;;;;;;;;32.90;99.90;;;;;;5086063;28;20040;-71
2022/06/04 11:32:42;;;;;;;;;;;34.00;99.90;;;;;;5087285;28;19924;-71
2022/06/04 11:35:15;;;;;;;;;;;34.50;99.90;;;;;;5093133;28;19935;-73
2022/06/04 11:38:01;;;;;;;;;;;34.70;99.90;;;;;;5090392;28;20591;-74
2022/06/04 11:40:33;;;;;;;;;;;34.90;99.80;;;;;;5090974;28;20046;-73
2022/06/04 11:43:00;;;;;;;;;;;34.00;99.40;;;;;;5084852;28;20607;-71
2022/06/04 11:45:49;;;;;;;;;;;33.80;98.80;;;;;;5090934;28;19924;-72
2022/06/04 11:48:16;;;;;;;;;;;33.20;98.90;;;;;;5054905;28;20390;-73
2022/06/04 11:50:50;;;;;;;;;;;32.00;99.50;;;;;;5089349;28;20018;-71
2022/06/04 11:53:35;;;;;;;;;;;31.20;99.90;;;;;;5090572;28;19924;-71
2022/06/04 11:56:08;;;;;;;;;;;30.90;99.90;;;;;;5086573;28;19939;-71
2022/06/04 11:58:54;;;;;;;;;;;30.70;99.90;;;;;;5090685;28;19924;-70
2022/06/04 12:01:27;;;;;;;;;;;31.00;99.90;;;;;;5087828;28;19932;-71
2022/06/04 12:03:58;;;;;;;;;;;30.40;99.90;;;;;;5104000;27;19999;-71
2022/06/04 12:06:45;;;;;;;;;;;29.80;99.90;;;;;;5092442;28;19924;-71
2022/06/04 12:09:17;;;;;;;;;;;29.50;99.90;;;;;;5081686;28;19954;-70
2022/06/04 12:11:48;;;;;;;;;;;29.40;99.90;;;;;;5079567;28;19978;-69
2022/06/04 12:14:25;;;;;;;;;;;29.30;99.90;;;;;;5083561;28;19924;-70
2022/06/04 12:16:51;;;;;;;;;;;29.50;99.90;;;;;;5082584;28;20031;-71
2022/06/04 12:25:12;;;;;;;;;;;30.90;99.90;;;;;;5084673;28;20465;-72
2022/06/04 12:28:17;;;;;;;;;;;31.30;99.90;;;;;;5088793;28;19950;-71
2022/06/04 12:30:46;;;;;;;;;;;31.60;99.90;;;;;;5005250;28;19934;-72
2022/06/04 12:33:24;;;;;;;;;;;31.50;99.90;;;;;;5003673;28;19932;-75
2022/06/04 12:36:02;;;;;;;;;;;31.70;99.90;;;;;;4986527;28;19932;-71
2022/06/04 12:38:30;;;;;;;;;;;31.70;99.90;;;;;;4999098;28;20024;-70
2022/06/04 12:41:12;;;;;;;;;;;31.20;99.90;;;;;;4990624;28;19953;-73
2022/06/04 12:43:42;;;;;;;;;;;30.50;99.90;;;;;;5003207;28;19940;-71
2022/06/04 12:46:29;;;;;;;;;;;29.50;99.90;;;;;;4994896;28;19951;-69
2022/06/04 12:49:01;;;;;;;;;;;29.00;99.90;;;;;;4999142;28;19934;-73
2022/06/04 12:51:38;;;;;;;;;;;28.70;99.90;;;;;;4987807;28;19956;-68
2022/06/04 12:54:17;;;;;;;;;;;28.50;99.90;;;;;;5002969;28;19941;-70
2022/06/04 12:56:52;;;;;;;;;;;28.40;99.90;;;;;;4983748;28;21896;-70
2022/06/04 12:59:42;;;;;;;;;;;28.50;99.90;;;;;;5003408;28;20337;-72
2022/06/04 13:02:28;;;;;;;;;;;28.30;99.90;;;;;;5063413;28;19932;-72
2022/06/04 13:05:08;;;;;;;;;;;28.20;99.90;;;;;;5079476;28;19952;-72
2022/06/04 13:07:44;;;;;;;;;;;28.20;99.90;;;;;;5086271;28;19931;-72
2022/06/04 13:10:21;;;;;;;;;;;27.90;99.90;;;;;;5083746;28;19933;-72
2022/06/04 13:12:59;;;;;;;;;;;27.70;99.90;;;;;;5089369;28;19924;-71
2022/06/04 13:15:31;;;;;;;;;;;27.50;99.90;;;;;;5087634;28;20011;-70
2022/06/04 13:17:58;;;;;;;;;;;27.40;99.90;;;;;;5081724;28;19944;-73
2022/06/04 13:20:28;;;;;;;;;;;27.30;99.90;;;;;;5082947;28;20807;-70
2022/06/04 13:22:57;;;;;;;;;;;27.20;99.90;;;;;;5086754;28;19924;-70
2022/06/04 13:25:28;;;;;;;;;;;27.30;99.90;;;;;;5086680;28;19958;-71
2022/06/04 13:27:55;;;;;;;;;;;27.20;99.90;;;;;;5085378;28;19930;-70
2022/06/04 13:30:26;;;;;;;;;;;27.20;99.90;;;;;;5088759;28;19931;-72
2022/06/04 13:32:58;;;;;;;;;;;27.40;99.90;;;;;;5090490;28;19930;-70
2022/06/04 13:35:31;;;;;;;;;;;28.00;99.90;;;;;;5086453;28;19928;-74
2022/06/04 13:37:58;;;;;;;;;;;28.90;99.90;;;;;;5085474;28;19946;-72
2022/06/04 13:40:27;;;;;;;;;;;29.10;99.90;;;;;;5089293;28;19924;-72
2022/06/04 13:42:55;;;;;;;;;;;29.00;99.90;;;;;;5087095;28;20021;-70
2022/06/04 13:45:32;;;;;;;;;;;28.60;99.90;;;;;;5090346;28;19928;-72
2022/06/04 13:48:00;;;;;;;;;;;28.50;99.90;;;;;;5090779;28;19954;-72
2022/06/04 13:50:29;;;;;;;;;;;28.40;99.90;;;;;;5088212;28;20395;-72
2022/06/04 13:52:58;;;;;;;;;;;28.40;99.90;;;;;;5091630;28;19924;-74
2022/06/04 13:55:36;;;;;;;;;;;28.20;99.90;;;;;;5077246;28;19998;-70
2022/06/04 13:58:15;;;;;;;;;;;28.70;99.90;;;;;;5090952;28;20014;-72
2022/06/04 14:00:45;;;;;;;;;;;29.50;99.90;;;;;;5072680;28;19924;-72
2022/06/04 14:03:17;;;;;;;;;;;29.30;99.90;;;;;;5090810;28;19950;-72
2022/06/04 14:05:48;;;;;;;;;;;30.20;99.90;;;;;;5079334;28;19931;-70
2022/06/04 14:08:19;;;;;;;;;;;30.90;99.90;;;;;;5086187;28;20351;-72
2022/06/04 14:11:01;;;;;;;;;;;31.50;99.90;;;;;;5083237;28;19924;-74
2022/06/04 14:13:37;;;;;;;;;;;31.60;99.90;;;;;;5075761;28;20051;-72
2022/06/04 14:16:23;;;;;;;;;;;31.90;99.90;;;;;;5085117;28;19938;-72
2022/06/04 14:18:54;;;;;;;;;;;32.40;98.70;;;;;;5087258;28;19924;-69
2022/06/04 14:21:39;;;;;;;;;;;33.80;98.60;;;;;;5083501;28;19939;-73
2022/06/04 14:24:18;;;;;;;;;;;34.30;97.60;;;;;;5089286;28;19924;-70
2022/06/04 14:26:56;;;;;;;;;;;34.40;97.10;;;;;;5085981;28;20485;-74
2022/06/04 14:29:40;;;;;;;;;;;35.00;97.00;;;;;;5077240;28;20437;-72
2022/06/04 14:32:25;;;;;;;;;;;34.60;96.30;;;;;;5077595;28;19928;-72
2022/06/04 14:34:53;;;;;;;;;;;34.70;96.50;;;;;;5084267;28;19930;-71
2022/06/04 14:37:23;;;;;;;;;;;34.90;96.10;;;;;;5086033;28;19928;-71
2022/06/04 14:39:51;;;;;;;;;;;35.30;96.10;;;;;;5085476;28;19928;-71
2022/06/04 14:42:20;;;;;;;;;;;35.20;95.50;;;;;;5080813;28;19934;-72
2022/06/04 14:45:03;;;;;;;;;;;35.60;95.50;;;;;;5074689;28;20590;-74
2022/06/04 14:47:34;;;;;;;;;;;36.00;95.50;;;;;;5077943;28;19932;-73
2022/06/04 14:50:12;;;;;;;;;;;36.20;94.90;;;;;;5083463;28;20374;-68
2022/06/04 14:52:45;;;;;;;;;;;36.10;95.10;;;;;;5076916;28;19994;-70
2022/06/04 14:55:20;;;;;;;;;;;35.30;95.10;;;;;;5085078;28;20677;-70
2022/06/04 14:58:14;;;;;;;;;;;34.90;95.40;;;;;;5087525;28;20015;-68
2022/06/04 15:00:47;;;;;;;;;;;34.10;95.40;;;;;;5089777;28;20306;-71
2022/06/04 15:03:33;;;;;;;;;;;33.10;96.10;;;;;;5080918;28;19928;-72